Impacts TAF Board INFO
FOR SITUATIONAL AWARENESS. NOT TO BE USED FOR FLIGHT PLANNING PURPOSES.
IDs:

KIAD - Washington/Dulles In, VA, US

Issued at 0520 UTC 11 Dec 2017
Updated at 0718 UTC 11 Dec 2017
Potential Impact None Slight Moderate High
Time0452Z 11/08Z 11/09Z 11/10Z 11/11Z 11/12Z 11/13Z 11/14Z 11/15Z 11/16Z 11/17Z 11/18Z 11/19Z 11/20Z>>
Type OBS PRVL PRVL PRVL PRVL PRVL PRVL PRVL PRVL PRVL PRVL PRVL PRVL PRVL
VIS 10 >6 >6 >6 >6 >6 >6 >6 >6 >6 >6 >6 >6 >6
CIG 75 80 -- -- -- -- -- -- -- -- -- -- -- 150
Cover OVC BKN SCT SCT SCT SCT SCT SCT SCT SCT SCT SCT SCT BKN
FltCat VFR VFR VFR VFR VFR VFR VFR VFR VFR VFR VFR VFR VFR VFR
WX -- -- -- -- -- -- -- -- -- -- -- -- -- --
WDir 180 VRB 220 220 220 220 220 220 280 280 280 280 280 190
WSpd 3 3 4 4 4 4 4 4 5 5 5 5 5 5
WGst -- -- -- -- -- -- -- -- -- -- -- -- -- --

Raw TAF
KIAD 110520Z 1106/1212 VRB03KT P6SM BKN080
  FM110900 22004KT P6SM SCT060
  FM111500 28005KT P6SM SCT250
  FM112000 19005KT P6SM BKN150


Raw METAR
KIAD 110452Z 18003KT 10SM OVC075 01/M03 A3004 RMK AO2 SLP175 T00111033 400441039

METAR Board
Radar Display
Forecast Discussion

FOR SITUATIONAL AWARENESS. NOT TO BE USED FOR FLIGHT PLANNING PURPOSES.